Time;durP1;ratioP1;P1;durP2;ratioP2;P2;SDS_P1;SDS_P2;PMS_P1;PMS_P2;Temp;Humidity;BMP_temperature;BMP_pressure;BME280_temperature;BME280_humidity;BME280_pressure;Samples;Min_cycle;Max_cycle;Signal;HPM_P1;HPM_P2
2021/07/07 00:01:28;;;;;;;0.80;0.73;;;;;;;21.54;91.01;100846.41;5034360;28;20459;-69
2021/07/07 00:03:54;;;;;;;0.60;0.60;;;;;;;21.54;90.16;100851.91;5034721;28;20452;-68
2021/07/07 00:06:22;;;;;;;2.10;1.20;;;;;;;21.52;90.67;100854.25;5034516;28;20471;-69
2021/07/07 00:08:49;;;;;;;0.93;0.70;;;;;;;21.51;89.51;100868.41;5034555;28;20447;-68
2021/07/07 00:11:15;;;;;;;1.53;0.97;;;;;;;21.49;89.39;100882.56;5034543;28;20439;-68
2021/07/07 00:13:41;;;;;;;1.07;0.73;;;;;;;21.40;90.16;100888.31;5034215;28;20489;-68
2021/07/07 00:16:08;;;;;;;0.97;0.60;;;;;;;21.29;91.51;100890.03;5034389;28;20470;-70
2021/07/07 00:18:34;;;;;;;0.50;0.50;;;;;;;21.15;92.75;100895.28;5034282;28;20451;-69
2021/07/07 00:21:01;;;;;;;0.90;0.77;;;;;;;21.07;95.69;100910.09;5034573;28;20443;-70
2021/07/07 00:23:31;;;;;;;1.00;0.73;;;;;;;20.90;96.70;100906.66;5033986;28;20502;-69
2021/07/07 00:25:58;;;;;;;1.33;0.90;;;;;;;20.84;97.12;100908.09;5049718;22;20470;-74
2021/07/07 00:28:25;;;;;;;0.97;0.67;;;;;;;20.75;97.09;100904.75;5034141;28;20428;-75
2021/07/07 00:30:55;;;;;;;0.77;0.77;;;;;;;20.70;98.05;100902.28;5034085;28;20439;-74
2021/07/07 00:33:22;;;;;;;0.60;0.50;;;;;;;20.58;97.12;100905.19;5034077;28;20486;-71
2021/07/07 00:35:49;;;;;;;1.90;0.90;;;;;;;20.55;98.26;100906.72;5033734;28;20454;-73
2021/07/07 00:38:17;;;;;;;2.00;0.80;;;;;;;20.45;99.19;100906.44;5033962;28;20446;-75
2021/07/07 00:40:45;;;;;;;0.87;0.87;;;;;;;20.36;99.37;100903.88;5034000;28;20439;-73
2021/07/07 00:43:14;;;;;;;0.97;0.80;;;;;;;20.25;100.00;100892.66;5033902;28;20450;-74
2021/07/07 00:45:41;;;;;;;1.30;0.90;;;;;;;20.17;100.00;100907.41;5034098;28;20439;-74
2021/07/07 00:48:07;;;;;;;0.70;0.70;;;;;;;20.15;100.00;100899.50;5033533;28;20949;-73
2021/07/07 00:50:34;;;;;;;1.00;0.90;;;;;;;20.03;100.00;100901.56;5034060;28;20447;-74
2021/07/07 00:53:01;;;;;;;1.30;0.97;;;;;;;19.98;100.00;100908.16;5033590;28;20486;-73
2021/07/07 00:55:28;;;;;;;0.80;0.60;;;;;;;19.94;100.00;100900.97;5033717;28;20450;-74
2021/07/07 00:57:58;;;;;;;0.73;0.70;;;;;;;19.94;100.00;100909.22;5033610;28;20482;-70
2021/07/07 01:00:25;;;;;;;1.27;0.83;;;;;;;19.86;100.00;100895.28;5033561;28;20940;-72
2021/07/07 01:02:54;;;;;;;1.07;0.80;;;;;;;19.83;100.00;100903.44;5033880;28;20439;-70
2021/07/07 01:05:21;;;;;;;1.70;0.90;;;;;;;19.83;100.00;100903.44;5033594;28;20940;-72
2021/07/07 01:07:48;;;;;;;1.07;0.77;;;;;;;19.75;100.00;100902.50;5033836;28;20485;-70
2021/07/07 01:10:16;;;;;;;1.67;0.93;;;;;;;19.72;100.00;100896.91;5033404;28;20443;-70
2021/07/07 01:12:43;;;;;;;1.33;1.00;;;;;;;19.71;100.00;100882.38;5033408;28;20447;-71
2021/07/07 01:15:14;;;;;;;2.40;0.87;;;;;;;19.70;100.00;100883.53;5033454;28;20452;-71
2021/07/07 01:17:41;;;;;;;1.70;1.00;;;;;;;19.61;100.00;100880.13;5033368;28;20827;-71
2021/07/07 01:20:11;;;;;;;1.00;0.80;;;;;;;19.54;100.00;100878.00;5033380;28;20447;-71
2021/07/07 01:22:40;;;;;;;1.33;1.00;;;;;;;19.54;100.00;100879.94;5033035;28;20435;-70
2021/07/07 01:25:08;;;;;;;0.73;0.70;;;;;;;19.59;100.00;100866.72;5033277;28;20443;-71
2021/07/07 01:27:34;;;;;;;1.00;0.80;;;;;;;19.59;100.00;100871.44;5032799;28;21018;-71
2021/07/07 01:30:01;;;;;;;1.63;1.10;;;;;;;19.58;100.00;100900.88;5033291;28;20447;-71
2021/07/07 01:32:27;;;;;;;0.83;0.83;;;;;;;19.61;100.00;100904.88;5033400;28;20439;-70
2021/07/07 01:34:54;;;;;;;1.33;0.77;;;;;;;19.57;100.00;100893.00;5033077;28;20490;-71
2021/07/07 01:37:22;;;;;;;1.47;1.27;;;;;;;19.54;100.00;100899.19;5033053;28;20470;-72
2021/07/07 01:39:50;;;;;;;0.80;0.60;;;;;;;19.54;100.00;100907.44;5033108;28;20448;-72
2021/07/07 01:42:17;;;;;;;1.57;1.30;;;;;;;19.55;100.00;100914.50;5033056;28;20443;-73
2021/07/07 01:44:43;;;;;;;0.80;0.80;;;;;;;19.53;100.00;100916.81;5033060;28;20447;-71
2021/07/07 01:47:10;;;;;;;1.00;0.83;;;;;;;19.55;100.00;100909.00;5032912;28;20478;-73
2021/07/07 01:49:36;;;;;;;1.67;0.90;;;;;;;19.53;100.00;100914.09;5035863;28;20940;-73
2021/07/07 01:52:03;;;;;;;1.10;0.80;;;;;;;19.58;100.00;100919.31;5036831;28;20940;-73
2021/07/07 01:54:30;;;;;;;1.13;1.00;;;;;;;19.58;100.00;100919.31;5036598;28;20483;-71
2021/07/07 01:56:57;;;;;;;1.83;1.30;;;;;;;19.59;100.00;100916.19;5036941;28;20463;-73
2021/07/07 01:59:24;;;;;;;1.10;1.00;;;;;;;19.60;100.00;100906.81;5035917;28;20945;-73
2021/07/07 02:01:51;;;;;;;0.77;0.70;;;;;;;19.59;100.00;100907.94;5036749;28;20896;-73
2021/07/07 02:04:17;;;;;;;1.20;1.00;;;;;;;19.53;100.00;100903.88;5036781;28;20465;-72
2021/07/07 02:06:44;;;;;;;1.80;1.03;;;;;;;19.45;100.00;100898.56;5036642;28;20467;-73
2021/07/07 02:09:10;;;;;;;1.43;0.63;;;;;;;19.41;100.00;100912.19;5036717;28;20526;-73
2021/07/07 02:11:37;;;;;;;1.37;1.07;;;;;;;19.44;100.00;100913.44;5036900;28;20447;-73
2021/07/07 02:14:05;;;;;;;1.50;0.83;;;;;;;19.41;100.00;100929.47;5036762;28;20478;-73
2021/07/07 02:16:31;;;;;;;1.17;0.80;;;;;;;19.37;100.00;100936.03;5036667;28;20467;-73
2021/07/07 02:18:58;;;;;;;0.80;0.80;;;;;;;19.33;100.00;100930.44;5036503;28;20450;-74
2021/07/07 02:21:24;;;;;;;1.30;1.20;;;;;;;19.28;100.00;100935.41;5036540;28;20443;-74
2021/07/07 02:23:51;;;;;;;0.73;0.70;;;;;;;19.25;100.00;100936.09;5036155;28;20963;-74
2021/07/07 02:26:17;;;;;;;1.13;0.93;;;;;;;19.26;100.00;100943.19;5036173;28;20477;-72
2021/07/07 02:28:43;;;;;;;0.93;0.70;;;;;;;19.19;100.00;100949.28;5036429;28;20423;-74
2021/07/07 02:31:11;;;;;;;0.70;0.50;;;;;;;19.14;100.00;100950.34;5036071;28;20940;-71
2021/07/07 02:33:38;;;;;;;1.33;1.10;;;;;;;19.11;100.00;100948.28;5036267;28;20478;-73
2021/07/07 02:36:05;;;;;;;0.87;0.80;;;;;;;19.09;100.00;100942.34;5035943;28;20455;-73
2021/07/07 02:38:32;;;;;;;1.13;0.90;;;;;;;19.08;100.00;100934.44;5036551;28;20443;-74
2021/07/07 02:40:58;;;;;;;1.30;1.20;;;;;;;19.08;100.00;100935.28;5036169;28;20486;-75
2021/07/07 02:43:26;;;;;;;0.90;0.80;;;;;;;19.09;100.00;100933.31;5036093;28;20454;-73
2021/07/07 02:45:53;;;;;;;1.30;0.90;;;;;;;19.09;100.00;100922.34;5036114;28;20537;-75
2021/07/07 02:48:21;;;;;;;1.20;1.10;;;;;;;19.07;100.00;100921.88;5036112;28;20438;-75
2021/07/07 02:50:48;;;;;;;1.00;0.90;;;;;;;19.06;100.00;100926.56;5036003;28;20443;-75
2021/07/07 02:53:17;;;;;;;1.63;1.17;;;;;;;19.10;100.00;100921.19;5035918;28;20439;-75
2021/07/07 02:55:44;;;;;;;0.90;0.80;;;;;;;19.10;100.00;100918.44;5035643;28;20948;-76
2021/07/07 02:58:11;;;;;;;0.77;0.77;;;;;;;19.12;100.00;100903.22;5035913;28;20447;-75
2021/07/07 03:00:40;;;;;;;1.10;0.90;;;;;;;19.10;100.00;100910.19;5036108;28;20447;-75
2021/07/07 03:03:09;;;;;;;1.30;0.73;;;;;;;19.09;100.00;100925.88;5035814;28;20462;-75
2021/07/07 03:05:38;;;;;;;0.80;0.80;;;;;;;19.08;100.00;100934.44;5035904;28;20439;-74
2021/07/07 03:08:06;;;;;;;1.87;1.27;;;;;;;19.08;100.00;100927.03;5035791;28;20443;-75
2021/07/07 03:10:32;;;;;;;1.47;1.07;;;;;;;19.05;100.00;100932.41;5035832;28;20444;-76
2021/07/07 03:12:59;;;;;;;1.37;0.90;;;;;;;19.03;100.00;100929.22;5035617;28;20443;-75
2021/07/07 03:15:26;;;;;;;0.80;0.80;;;;;;;19.05;100.00;100924.97;5035613;28;20854;-76
2021/07/07 03:17:53;;;;;;;1.30;1.17;;;;;;;19.03;100.00;100909.97;5035117;28;20463;-76
2021/07/07 03:20:20;;;;;;;1.10;1.10;;;;;;;19.06;100.00;100899.09;5035512;28;20446;-75
2021/07/07 03:22:48;;;;;;;1.20;1.07;;;;;;;19.11;100.00;100895.31;5035505;28;20438;-75
2021/07/07 03:25:15;;;;;;;0.60;0.60;;;;;;;19.10;100.00;100923.91;5035435;28;20483;-75
2021/07/07 03:27:42;;;;;;;1.30;1.20;;;;;;;19.04;100.00;100952.78;5034900;28;20490;-75
2021/07/07 03:30:10;;;;;;;1.67;1.30;;;;;;;18.91;100.00;100946.53;5035346;28;20447;-75
2021/07/07 03:32:36;;;;;;;1.07;0.90;;;;;;;18.87;100.00;100945.63;5032002;28;20472;-75
2021/07/07 03:35:04;;;;;;;1.37;1.07;;;;;;;18.88;100.00;100959.00;5015275;28;20490;-75
2021/07/07 03:37:31;;;;;;;1.53;1.30;;;;;;;18.90;100.00;100973.19;5015371;28;20823;-75
2021/07/07 03:39:58;;;;;;;0.90;0.77;;;;;;;18.88;100.00;100980.19;5015350;28;20448;-75
2021/07/07 03:42:25;;;;;;;0.70;0.60;;;;;;;18.84;100.00;100960.06;5015373;28;20444;-75
2021/07/07 03:44:51;;;;;;;1.40;1.20;;;;;;;18.82;100.00;100974.13;5014995;28;20455;-75
2021/07/07 03:47:18;;;;;;;1.53;1.23;;;;;;;18.85;100.00;100975.38;5015137;28;20463;-74
2021/07/07 03:49:44;;;;;;;2.70;1.23;;;;;;;18.83;100.00;100969.44;5015226;28;20467;-75
2021/07/07 03:52:10;;;;;;;1.23;1.13;;;;;;;18.84;100.00;100980.06;5015155;28;20444;-74
2021/07/07 03:54:37;;;;;;;3.57;1.10;;;;;;;18.80;100.00;100990.13;5014977;28;20484;-73
2021/07/07 03:57:05;;;;;;;2.60;1.20;;;;;;;18.81;100.00;100985.44;5014880;28;20468;-75
2021/07/07 03:59:31;;;;;;;4.33;1.57;;;;;;;18.84;100.00;100971.81;5014925;28;20451;-74
2021/07/07 04:01:58;;;;;;;5.70;1.33;;;;;;;18.84;100.00;100966.34;5014899;28;20452;-74
2021/07/07 04:04:24;;;;;;;2.67;1.33;;;;;;;18.83;100.00;100966.69;5014913;28;20444;-73
2021/07/07 04:06:51;;;;;;;0.80;0.80;;;;;;;18.83;100.00;100978.47;5014464;28;20981;-75
2021/07/07 04:09:19;;;;;;;1.33;0.97;;;;;;;18.83;100.00;100966.69;5015102;28;20451;-74
2021/07/07 04:11:46;;;;;;;1.13;1.00;;;;;;;18.81;100.00;100958.00;5014211;28;20448;-75
2021/07/07 04:14:15;;;;;;;1.00;0.87;;;;;;;18.85;100.00;100943.22;5014654;28;20484;-74
2021/07/07 04:16:42;;;;;;;1.33;1.23;;;;;;;18.88;100.00;100937.03;5014618;28;20848;-75
2021/07/07 04:19:08;;;;;;;1.77;1.20;;;;;;;18.86;100.00;100936.59;5014652;28;20451;-74
2021/07/07 04:21:34;;;;;;;0.90;0.80;;;;;;;18.90;100.00;100964.97;5014694;28;20465;-72
2021/07/07 04:24:01;;;;;;;1.00;0.90;;;;;;;18.89;100.00;100981.75;5014510;28;20980;-74
2021/07/07 04:26:27;;;;;;;1.30;0.93;;;;;;;18.84;100.00;100980.06;5014242;28;20480;-73
2021/07/07 04:28:54;;;;;;;1.50;1.40;;;;;;;18.85;100.00;100989.09;5014422;28;20444;-74
2021/07/07 04:31:23;;;;;;;0.90;0.90;;;;;;;18.85;100.00;100991.84;5014464;28;20818;-73
2021/07/07 04:33:50;;;;;;;1.43;1.07;;;;;;;18.83;100.00;101005.13;5014049;28;21020;-74
2021/07/07 04:36:16;;;;;;;1.53;1.30;;;;;;;18.83;100.00;101008.66;5014392;28;20464;-74
2021/07/07 04:38:43;;;;;;;1.00;0.93;;;;;;;18.83;100.00;101013.34;5014423;28;20444;-74
2021/07/07 04:41:09;;;;;;;1.73;1.43;;;;;;;18.85;100.00;101006.34;5014266;28;20448;-74
2021/07/07 04:43:35;;;;;;;1.33;1.20;;;;;;;18.82;100.00;101001.59;5014208;28;20456;-72
2021/07/07 04:46:02;;;;;;;1.47;1.03;;;;;;;18.77;100.00;101011.97;5014095;28;20464;-72
2021/07/07 04:48:30;;;;;;;1.63;1.23;;;;;;;18.72;100.00;101012.22;5014154;28;20454;-73
2021/07/07 04:50:56;;;;;;;3.50;1.10;;;;;;;18.70;100.00;101009.84;5014162;28;20444;-72
2021/07/07 04:53:23;;;;;;;1.07;0.90;;;;;;;18.69;100.00;100999.19;5014064;28;20933;-71
2021/07/07 04:55:49;;;;;;;2.30;1.10;;;;;;;18.71;100.00;101019.66;5013929;28;20488;-77
2021/07/07 04:58:16;;;;;;;1.77;1.27;;;;;;;18.75;100.00;101020.56;5014525;28;20448;-77
2021/07/07 05:00:42;;;;;;;1.70;1.03;;;;;;;18.77;100.00;101031.19;5013944;28;20451;-72
2021/07/07 05:03:09;;;;;;;1.83;1.23;;;;;;;18.76;100.00;101051.56;5013824;28;20471;-72
2021/07/07 05:05:39;;;;;;;4.80;0.97;;;;;;;18.77;100.00;101056.72;5013512;28;20956;-70
2021/07/07 05:08:06;;;;;;;1.17;1.07;;;;;;;18.79;100.00;101067.34;5013505;28;20937;-70
2021/07/07 05:10:33;;;;;;;0.70;0.70;;;;;;;18.74;100.00;101078.56;5013992;28;20443;-76
2021/07/07 05:13:00;;;;;;;1.63;1.20;;;;;;;18.69;100.00;101082.34;5013989;28;20512;-72
2021/07/07 05:15:26;;;;;;;1.10;0.90;;;;;;;18.64;100.00;101097.06;5013712;28;20484;-72
2021/07/07 05:17:53;;;;;;;1.63;1.00;;;;;;;18.60;100.00;101117.31;5013377;28;20491;-74
2021/07/07 05:20:19;;;;;;;1.60;1.10;;;;;;;18.53;100.00;101123.34;5012583;28;20447;-73
2021/07/07 05:22:48;;;;;;;2.37;0.97;;;;;;;18.50;100.00;101125.94;5005255;28;20460;-73
2021/07/07 05:25:16;;;;;;;1.30;1.13;;;;;;;18.41;100.00;101126.84;5013498;28;20454;-70
2021/07/07 05:27:43;;;;;;;3.80;1.20;;;;;;;18.33;100.00;101122.28;5007204;28;20481;-74
2021/07/07 05:30:11;;;;;;;2.30;1.57;;;;;;;18.35;100.00;101117.25;5012506;28;20460;-74
2021/07/07 05:32:37;;;;;;;1.30;1.20;;;;;;;18.47;100.00;101108.25;5013524;28;20440;-74
2021/07/07 05:35:05;;;;;;;1.73;1.57;;;;;;;18.48;100.00;101092.59;5010469;28;21095;-74
2021/07/07 05:37:32;;;;;;;2.70;1.40;;;;;;;18.54;100.00;101097.50;5011904;28;20471;-74
2021/07/07 05:40:00;;;;;;;1.37;1.07;;;;;;;18.62;100.00;101106.75;5013099;28;20983;-73
2021/07/07 05:42:27;;;;;;;2.10;1.00;;;;;;;18.65;100.00;101115.13;5011902;28;20456;-74
2021/07/07 05:44:53;;;;;;;1.63;1.17;;;;;;;18.58;100.00;101136.81;5004717;28;20445;-74
2021/07/07 05:47:21;;;;;;;1.30;0.90;;;;;;;18.44;100.00;101143.78;4993739;28;20476;-74
2021/07/07 05:49:48;;;;;;;1.80;1.40;;;;;;;18.41;100.00;101153.50;5008761;28;20961;-74
2021/07/07 05:52:14;;;;;;;1.50;1.40;;;;;;;18.32;100.00;101153.59;5013495;28;20448;-74
2021/07/07 05:54:41;;;;;;;0.80;0.80;;;;;;;18.24;100.00;101142.72;5013022;28;20491;-74
2021/07/07 05:57:09;;;;;;;1.67;1.27;;;;;;;18.25;100.00;101136.91;5022293;28;20467;-72
2021/07/07 05:59:35;;;;;;;1.30;1.00;;;;;;;18.26;100.00;101141.25;5022610;28;20926;-74
2021/07/07 06:02:02;;;;;;;1.33;1.07;;;;;;;18.19;100.00;101149.22;5004716;28;20433;-76
2021/07/07 06:04:29;;;;;;;1.10;0.97;;;;;;;18.21;100.00;101149.69;5000479;28;20445;-73
2021/07/07 06:06:55;;;;;;;0.83;0.80;;;;;;;18.26;100.00;101157.69;4996036;28;20475;-75
2021/07/07 06:09:22;;;;;;;2.30;1.63;;;;;;;18.32;100.00;101166.50;4998841;28;20942;-72
2021/07/07 06:11:49;;;;;;;1.23;1.07;;;;;;;18.44;100.00;101166.53;4998652;28;20429;-72
2021/07/07 06:14:17;;;;;;;2.53;1.23;;;;;;;18.45;100.00;101154.41;4995008;28;20537;-73
2021/07/07 06:16:43;;;;;;;1.53;1.20;;;;;;;18.51;100.00;101144.84;4993567;28;20496;-72
2021/07/07 06:19:18;;;;;;;1.53;1.00;;;;;;;18.54;100.00;101151.56;4993323;28;20954;-75
2021/07/07 06:21:45;;;;;;;1.93;1.30;;;;;;;18.54;100.00;101146.09;5005961;28;20450;-73
2021/07/07 06:24:13;;;;;;;1.30;1.20;;;;;;;18.54;100.00;101148.81;5011732;28;20953;-75
2021/07/07 06:26:40;;;;;;;1.23;1.13;;;;;;;18.51;100.00;101163.25;5011615;28;21087;-70
2021/07/07 06:29:07;;;;;;;1.67;1.47;;;;;;;18.49;100.00;101165.50;5011878;28;21008;-72
2021/07/07 06:31:35;;;;;;;1.33;1.23;;;;;;;18.48;100.00;101161.19;5012604;28;20583;-71
2021/07/07 06:34:04;;;;;;;1.13;1.03;;;;;;;18.47;100.00;101156.84;5013235;28;22099;-72
2021/07/07 06:36:31;;;;;;;2.40;1.57;;;;;;;18.53;100.00;101158.22;5008142;28;20481;-74
2021/07/07 06:38:57;;;;;;;1.13;1.03;;;;;;;18.53;100.00;101153.53;5012787;28;20453;-74
2021/07/07 06:41:24;;;;;;;2.47;1.50;;;;;;;18.59;100.00;101154.09;4996797;28;20449;-75
2021/07/07 06:43:50;;;;;;;1.97;1.77;;;;;;;18.60;100.00;101155.72;5006057;28;20887;-73
2021/07/07 06:46:17;;;;;;;1.60;1.33;;;;;;;18.64;100.00;101151.94;5015801;28;20555;-72
2021/07/07 06:48:45;;;;;;;1.53;1.43;;;;;;;18.67;100.00;101153.19;5015839;28;20532;-72
2021/07/07 06:51:12;;;;;;;1.67;1.17;;;;;;;18.72;100.00;101174.16;5015901;28;21025;-72
2021/07/07 06:53:38;;;;;;;3.70;1.20;;;;;;;18.71;100.00;101178.03;5016137;28;20444;-72
2021/07/07 06:56:05;;;;;;;2.30;1.20;;;;;;;18.71;100.00;101173.34;5015571;28;20495;-72
2021/07/07 06:58:32;;;;;;;1.40;1.23;;;;;;;18.72;100.00;101171.41;5007954;28;20503;-72
2021/07/07 07:00:58;;;;;;;2.10;1.40;;;;;;;18.78;100.00;101167.31;5016018;28;20480;-71
2021/07/07 07:03:25;;;;;;;1.50;1.37;;;;;;;18.80;100.00;101171.28;5015175;28;20973;-72
2021/07/07 07:05:53;;;;;;;3.10;2.10;;;;;;;18.76;100.00;101184.09;5014742;28;20450;-72
2021/07/07 07:08:20;;;;;;;2.13;1.50;;;;;;;18.71;100.00;101178.84;5016164;28;20440;-71
2021/07/07 07:10:46;;;;;;;1.87;1.30;;;;;;;18.70;100.00;101182.72;5015496;28;20536;-73
2021/07/07 07:13:13;;;;;;;3.73;1.50;;;;;;;18.73;100.00;101186.75;5015435;28;20451;-71
2021/07/07 07:15:41;;;;;;;2.47;1.80;;;;;;;18.75;100.00;101198.97;5015692;28;20538;-72
2021/07/07 07:18:08;;;;;;;3.50;1.40;;;;;;;18.73;100.00;101217.75;5015779;28;20494;-74
2021/07/07 07:20:34;;;;;;;1.67;1.57;;;;;;;18.70;100.00;101225.84;5015728;28;20451;-71
2021/07/07 07:23:04;;;;;;;2.00;1.80;;;;;;;18.70;100.00;101228.59;5010119;28;20536;-73
2021/07/07 07:25:31;;;;;;;1.90;1.70;;;;;;;18.66;100.00;101239.41;4995810;28;20495;-72
2021/07/07 07:27:57;;;;;;;1.50;1.40;;;;;;;18.66;100.00;101247.63;5007243;28;20488;-73
2021/07/07 07:30:29;;;;;;;2.87;2.00;;;;;;;18.63;100.00;101245.56;5015128;28;20459;-72
2021/07/07 07:32:56;;;;;;;3.07;1.60;;;;;;;18.55;100.00;101246.47;5015421;28;20953;-73
2021/07/07 07:35:23;;;;;;;2.43;1.40;;;;;;;18.52;100.00;101234.22;5000070;28;20579;-73
2021/07/07 07:37:53;;;;;;;1.87;1.43;;;;;;;18.51;100.00;101242.81;5003105;28;20492;-74
2021/07/07 07:40:24;;;;;;;3.00;1.50;;;;;;;18.48;100.00;101235.25;5015609;28;20451;-74
2021/07/07 07:42:51;;;;;;;1.97;1.50;;;;;;;18.46;100.00;101234.78;5015444;28;20484;-74
2021/07/07 07:45:17;;;;;;;1.37;1.27;;;;;;;18.42;100.00;101234.66;5011415;28;20449;-74
2021/07/07 07:47:45;;;;;;;1.40;1.20;;;;;;;18.50;100.00;101220.03;5011304;28;20483;-69
2021/07/07 07:50:13;;;;;;;2.47;1.53;;;;;;;18.50;100.00;101216.50;5014967;28;20808;-73
2021/07/07 07:52:40;;;;;;;1.37;1.27;;;;;;;18.55;100.00;101214.34;5015624;28;20503;-73
2021/07/07 07:55:08;;;;;;;4.30;1.30;;;;;;;18.60;100.00;101200.41;5015318;28;21108;-73
2021/07/07 07:57:37;;;;;;;1.00;0.97;;;;;;;18.62;100.00;101213.78;5015320;28;20460;-72
2021/07/07 08:00:05;;;;;;;1.00;0.90;;;;;;;18.73;100.00;101222.44;5025288;28;20463;-73
2021/07/07 08:02:31;;;;;;;1.60;1.40;;;;;;;18.77;100.00;101215.91;5029287;28;20464;-73
2021/07/07 08:07:29;;;;;;;1.40;1.03;;;;;;;18.84;100.00;101215.34;5056446;22;20494;-70
2021/07/07 08:09:56;;;;;;;1.50;1.40;;;;;;;18.92;100.00;101228.16;5034402;28;20444;-70
2021/07/07 08:12:23;;;;;;;1.57;1.20;;;;;;;18.86;100.00;101229.53;5014717;28;20443;-70
2021/07/07 08:14:51;;;;;;;3.73;1.90;;;;;;;18.81;100.00;101247.00;5021426;28;20438;-71
2021/07/07 08:17:18;;;;;;;2.90;2.00;;;;;;;18.75;100.00;101281.31;5052587;28;20513;-72
2021/07/07 08:19:44;;;;;;;2.77;1.73;;;;;;;18.70;100.00;101292.50;5053902;28;20446;-72
2021/07/07 08:22:11;;;;;;;2.20;1.70;;;;;;;18.74;100.00;101298.94;5039771;28;20446;-72
2021/07/07 08:24:37;;;;;;;2.70;1.17;;;;;;;18.69;100.00;101298.31;5032817;28;20459;-73
2021/07/07 08:27:04;;;;;;;1.93;1.20;;;;;;;18.63;100.00;101297.72;5033247;28;20463;-73
2021/07/07 08:29:31;;;;;;;1.57;1.20;;;;;;;18.63;100.00;101300.44;5041956;28;20812;-73
2021/07/07 08:31:59;;;;;;;0.93;0.87;;;;;;;18.63;100.00;101293.00;5054281;28;20446;-74
2021/07/07 08:34:25;;;;;;;2.23;1.37;;;;;;;18.65;100.00;101273.50;5038842;28;20447;-72
2021/07/07 08:36:52;;;;;;;1.73;1.50;;;;;;;18.74;100.00;101262.44;5036490;28;20489;-74
2021/07/07 08:39:18;;;;;;;2.03;1.83;;;;;;;18.78;100.00;101261.44;5034376;28;20440;-73
2021/07/07 08:41:44;;;;;;;2.90;1.70;;;;;;;18.87;100.00;101253.91;5045822;28;20446;-74
2021/07/07 08:44:11;;;;;;;1.70;1.30;;;;;;;18.91;100.00;101256.78;5053895;28;20446;-73
2021/07/07 08:46:38;;;;;;;1.93;1.60;;;;;;;18.89;100.00;101259.84;5035369;28;20463;-74
2021/07/07 08:49:06;;;;;;;1.53;1.23;;;;;;;18.97;100.00;101269.13;5033891;28;20443;-74
2021/07/07 08:51:33;;;;;;;2.20;1.53;;;;;;;19.07;100.00;101274.16;5033987;28;20451;-73
2021/07/07 08:54:01;;;;;;;1.70;1.37;;;;;;;19.00;100.00;101273.94;5033848;28;20542;-74
2021/07/07 08:56:27;;;;;;;1.70;1.57;;;;;;;19.06;100.00;101272.56;5032957;28;20487;-74
2021/07/07 08:58:53;;;;;;;1.27;1.17;;;;;;;19.02;100.00;101276.34;5049228;28;20486;-72
2021/07/07 09:01:20;;;;;;;1.93;1.60;;;;;;;18.98;100.00;101294.63;5050744;28;20464;-73
2021/07/07 09:03:46;;;;;;;1.27;1.07;;;;;;;18.99;100.00;101301.72;5033041;28;20963;-72
2021/07/07 09:06:16;;;;;;;2.97;1.70;;;;;;;18.95;100.00;101317.25;5033290;28;20478;-72
2021/07/07 09:08:47;;;;;;;1.20;1.00;;;;;;;18.93;100.00;101316.81;5033467;28;20534;-72
2021/07/07 09:11:15;;;;;;;2.27;1.33;;;;;;;18.93;100.00;101331.34;5032929;28;20459;-71
2021/07/07 09:13:42;;;;;;;4.30;1.20;;;;;;;18.94;100.00;101340.38;5037195;28;20438;-72
2021/07/07 09:16:10;;;;;;;1.33;1.20;;;;;;;18.84;100.00;101342.41;5053001;28;20498;-72
2021/07/07 09:18:36;;;;;;;0.90;0.80;;;;;;;18.79;100.00;101336.34;5053327;28;20449;-72
2021/07/07 09:21:03;;;;;;;1.40;1.30;;;;;;;18.70;100.00;101352.09;5039041;28;20451;-73
2021/07/07 09:23:32;;;;;;;1.10;1.00;;;;;;;18.65;100.00;101373.09;5032401;28;20450;-73
2021/07/07 09:26:01;;;;;;;1.93;1.23;;;;;;;18.62;100.00;101381.97;5035274;28;20469;-72
2021/07/07 09:28:30;;;;;;;1.20;1.10;;;;;;;18.58;100.00;101372.00;5053019;28;20943;-71
2021/07/07 09:31:00;;;;;;;1.87;1.27;;;;;;;18.55;100.00;101380.91;5040089;28;20937;-71
2021/07/07 09:33:27;;;;;;;2.70;1.00;;;;;;;18.62;100.00;101373.75;5033400;28;20450;-71
2021/07/07 09:36:18;;;;;;;2.00;1.20;;;;;;;18.69;100.00;101386.97;5032533;28;20490;-69
2021/07/07 09:38:45;;;;;;;1.63;1.20;;;;;;;18.68;100.00;101396.28;5033312;28;20443;-72
2021/07/07 09:41:12;;;;;;;1.53;1.10;;;;;;;18.74;100.00;101392.25;5032814;28;20451;-72
2021/07/07 09:43:45;;;;;;;1.60;1.47;;;;;;;18.76;100.00;101400.94;5037306;28;20447;-72
2021/07/07 09:46:12;;;;;;;1.37;0.93;;;;;;;18.75;100.00;101407.56;5033616;28;20471;-71
2021/07/07 09:48:38;;;;;;;2.13;1.57;;;;;;;18.71;100.00;101412.13;5033372;28;20446;-73
2021/07/07 09:51:05;;;;;;;1.50;1.20;;;;;;;18.67;100.00;101402.94;5042886;28;20450;-74
2021/07/07 09:53:33;;;;;;;1.63;0.93;;;;;;;18.76;100.00;101411.13;5052939;28;20450;-73
2021/07/07 09:56:01;;;;;;;1.13;1.00;;;;;;;18.88;100.00;101419.41;5035492;28;20493;-73
2021/07/07 09:58:28;;;;;;;1.23;1.03;;;;;;;19.02;100.00;101408.94;5033121;28;20439;-74
2021/07/07 10:00:55;;;;;;;1.53;1.07;;;;;;;19.16;100.00;101411.38;5032441;28;20874;-74
2021/07/07 10:03:22;;;;;;;1.17;1.00;;;;;;;19.06;100.00;101407.13;5032993;28;20447;-73
2021/07/07 10:05:48;;;;;;;1.00;0.90;;;;;;;19.02;100.00;101402.66;5032629;28;20475;-74
2021/07/07 10:08:15;;;;;;;1.60;1.10;;;;;;;19.03;100.00;101407.00;5050451;28;20434;-74
2021/07/07 10:10:43;;;;;;;1.33;1.13;;;;;;;19.05;100.00;101405.53;5055514;28;20442;-74
2021/07/07 10:13:10;;;;;;;0.90;0.80;;;;;;;19.15;100.00;101413.34;5056775;28;20450;-73
2021/07/07 10:15:37;;;;;;;1.13;0.93;;;;;;;19.21;100.00;101394.69;5056238;28;20516;-73
2021/07/07 10:18:05;;;;;;;1.03;0.93;;;;;;;19.25;100.00;101395.59;5040803;28;20502;-73
2021/07/07 10:20:32;;;;;;;3.33;1.00;;;;;;;19.33;100.00;101391.16;5036757;28;20454;-73
2021/07/07 10:23:00;;;;;;;1.47;1.20;;;;;;;19.41;100.00;101393.81;5036523;28;20457;-73
2021/07/07 10:25:29;;;;;;;0.90;0.90;;;;;;;19.46;100.00;101392.00;5035360;28;21026;-74
2021/07/07 10:27:59;;;;;;;1.60;1.17;;;;;;;19.54;100.00;101391.91;5041854;28;20439;-73
2021/07/07 10:30:51;;;;;;;2.17;1.47;;;;;;;19.51;100.00;101386.28;5045902;28;20438;-73
2021/07/07 10:33:18;;;;;;;1.37;1.27;;;;;;;19.55;100.00;101382.50;5056375;28;20430;-72
2021/07/07 10:35:45;;;;;;;0.80;0.80;;;;;;;19.52;100.00;101377.72;5036504;28;20469;-71
2021/07/07 10:38:12;;;;;;;1.10;1.00;;;;;;;19.51;100.00;101378.03;5036533;28;20810;-73
2021/07/07 10:40:44;;;;;;;2.00;1.10;;;;;;;19.48;100.00;101382.28;5036147;28;20439;-71
2021/07/07 10:43:24;;;;;;;1.30;1.20;;;;;;;19.50;100.00;101390.16;5035686;28;20532;-72
2021/07/07 10:45:50;;;;;;;1.17;1.00;;;;;;;19.56;100.00;101402.53;5049531;28;20466;-71
2021/07/07 10:48:28;;;;;;;1.13;1.00;;;;;;;19.64;100.00;101407.16;5055254;28;20442;-69
2021/07/07 10:50:56;;;;;;;1.20;1.00;;;;;;;19.67;100.00;101409.22;5035664;28;20821;-71
2021/07/07 10:53:34;;;;;;;1.60;1.13;;;;;;;19.75;100.00;101413.81;5035348;28;20443;-71
2021/07/07 10:56:02;;;;;;;1.17;1.03;;;;;;;19.84;100.00;101403.50;5035600;28;20474;-72
2021/07/07 10:58:33;;;;;;;1.70;1.03;;;;;;;19.95;100.00;101405.78;5035439;28;20447;-72
2021/07/07 11:01:00;;;;;;;0.90;0.83;;;;;;;19.96;100.00;101404.66;5035558;28;20431;-71
2021/07/07 11:03:39;;;;;;;1.37;1.10;;;;;;;20.02;100.00;101400.53;5035328;28;20435;-72
2021/07/07 11:06:25;;;;;;;1.20;1.10;;;;;;;20.14;100.00;101398.56;5034873;28;20482;-72
2021/07/07 11:08:52;;;;;;;1.73;1.17;;;;;;;20.26;100.00;101386.72;5035055;28;20435;-72
2021/07/07 11:11:23;;;;;;;0.87;0.70;;;;;;;20.50;100.00;101388.66;5035150;28;20769;-72
2021/07/07 11:13:53;;;;;;;1.40;1.30;;;;;;;20.71;100.00;101382.94;5035056;28;20933;-72
2021/07/07 11:16:21;;;;;;;0.80;0.80;;;;;;;20.84;100.00;101389.22;5035645;28;20497;-70
2021/07/07 11:18:48;;;;;;;2.53;0.97;;;;;;;21.04;98.03;101395.69;5035434;28;20443;-73
2021/07/07 11:21:15;;;;;;;0.93;0.80;;;;;;;21.20;98.28;101390.97;5033887;28;20482;-71